sensor_id;sensor_type;location;lat;lon;timestamp;P1;durP1;ratioP1;P2;durP2;ratioP2
16393;SDS011;8306;51.128;4.476;2023-03-18T00:01:20;7.17;;;6.53;;
16393;SDS011;8306;51.128;4.476;2023-03-18T00:03:47;9.00;;;7.60;;
16393;SDS011;8306;51.128;4.476;2023-03-18T00:06:14;7.83;;;6.63;;
16393;SDS011;8306;51.128;4.476;2023-03-18T00:08:40;7.50;;;6.80;;
16393;SDS011;8306;51.128;4.476;2023-03-18T00:11:06;7.83;;;7.13;;
16393;SDS011;8306;51.128;4.476;2023-03-18T00:13:33;7.80;;;7.00;;
16393;SDS011;8306;51.128;4.476;2023-03-18T00:15:59;8.53;;;7.73;;
16393;SDS011;8306;51.128;4.476;2023-03-18T00:18:26;8.40;;;7.60;;
16393;SDS011;8306;51.128;4.476;2023-03-18T00:20:52;9.00;;;8.10;;
16393;SDS011;8306;51.128;4.476;2023-03-18T00:23:18;8.93;;;8.10;;
16393;SDS011;8306;51.128;4.476;2023-03-18T00:25:46;8.93;;;8.03;;
16393;SDS011;8306;51.128;4.476;2023-03-18T00:28:12;12.33;;;7.50;;
16393;SDS011;8306;51.128;4.476;2023-03-18T00:30:38;8.43;;;7.63;;
16393;SDS011;8306;51.128;4.476;2023-03-18T00:33:04;9.30;;;8.07;;
16393;SDS011;8306;51.128;4.476;2023-03-18T00:35:31;9.90;;;7.43;;
16393;SDS011;8306;51.128;4.476;2023-03-18T00:37:57;8.70;;;7.70;;
16393;SDS011;8306;51.128;4.476;2023-03-18T00:40:24;11.27;;;8.20;;
16393;SDS011;8306;51.128;4.476;2023-03-18T00:42:50;8.77;;;7.83;;
16393;SDS011;8306;51.128;4.476;2023-03-18T00:45:17;8.87;;;7.97;;
16393;SDS011;8306;51.128;4.476;2023-03-18T00:47:43;9.27;;;8.20;;
16393;SDS011;8306;51.128;4.476;2023-03-18T00:50:10;8.33;;;7.07;;
16393;SDS011;8306;51.128;4.476;2023-03-18T00:52:36;8.90;;;8.00;;
16393;SDS011;8306;51.128;4.476;2023-03-18T00:55:03;8.80;;;7.57;;
16393;SDS011;8306;51.128;4.476;2023-03-18T00:57:29;9.93;;;8.40;;
16393;SDS011;8306;51.128;4.476;2023-03-18T00:59:56;11.77;;;7.53;;
16393;SDS011;8306;51.128;4.476;2023-03-18T01:02:22;9.97;;;7.53;;
16393;SDS011;8306;51.128;4.476;2023-03-18T01:04:49;10.50;;;8.23;;
16393;SDS011;8306;51.128;4.476;2023-03-18T01:07:15;8.30;;;7.60;;
16393;SDS011;8306;51.128;4.476;2023-03-18T01:09:42;8.77;;;7.73;;
16393;SDS011;8306;51.128;4.476;2023-03-18T01:12:08;10.13;;;8.47;;
16393;SDS011;8306;51.128;4.476;2023-03-18T01:14:38;8.70;;;7.90;;
16393;SDS011;8306;51.128;4.476;2023-03-18T01:17:04;8.70;;;7.90;;
16393;SDS011;8306;51.128;4.476;2023-03-18T01:19:30;8.20;;;7.40;;
16393;SDS011;8306;51.128;4.476;2023-03-18T01:21:57;10.00;;;8.07;;
16393;SDS011;8306;51.128;4.476;2023-03-18T01:24:23;8.97;;;8.10;;
16393;SDS011;8306;51.128;4.476;2023-03-18T01:26:50;9.70;;;8.80;;
16393;SDS011;8306;51.128;4.476;2023-03-18T01:29:16;9.43;;;7.90;;
16393;SDS011;8306;51.128;4.476;2023-03-18T01:31:43;9.47;;;8.40;;
16393;SDS011;8306;51.128;4.476;2023-03-18T01:34:09;8.93;;;8.03;;
16393;SDS011;8306;51.128;4.476;2023-03-18T01:36:36;9.03;;;7.87;;
16393;SDS011;8306;51.128;4.476;2023-03-18T01:39:02;9.67;;;8.70;;
16393;SDS011;8306;51.128;4.476;2023-03-18T01:41:29;11.27;;;8.23;;
16393;SDS011;8306;51.128;4.476;2023-03-18T01:43:55;8.97;;;7.70;;
16393;SDS011;8306;51.128;4.476;2023-03-18T01:46:32;8.93;;;8.03;;
16393;SDS011;8306;51.128;4.476;2023-03-18T01:49:00;8.93;;;7.90;;
16393;SDS011;8306;51.128;4.476;2023-03-18T01:51:24;8.47;;;7.67;;
16393;SDS011;8306;51.128;4.476;2023-03-18T01:53:50;7.90;;;7.20;;
16393;SDS011;8306;51.128;4.476;2023-03-18T01:56:16;8.67;;;7.77;;
16393;SDS011;8306;51.128;4.476;2023-03-18T01:58:46;10.03;;;8.07;;
16393;SDS011;8306;51.128;4.476;2023-03-18T02:01:16;8.77;;;7.57;;
16393;SDS011;8306;51.128;4.476;2023-03-18T02:03:40;9.03;;;7.80;;
16393;SDS011;8306;51.128;4.476;2023-03-18T02:06:05;11.43;;;7.83;;
16393;SDS011;8306;51.128;4.476;2023-03-18T02:08:32;8.73;;;7.43;;
16393;SDS011;8306;51.128;4.476;2023-03-18T02:10:58;8.87;;;7.87;;
16393;SDS011;8306;51.128;4.476;2023-03-18T02:13:25;9.60;;;8.70;;
16393;SDS011;8306;51.128;4.476;2023-03-18T02:15:53;9.17;;;8.27;;
16393;SDS011;8306;51.128;4.476;2023-03-18T02:18:29;10.07;;;9.13;;
16393;SDS011;8306;51.128;4.476;2023-03-18T02:21:10;9.77;;;8.87;;
16393;SDS011;8306;51.128;4.476;2023-03-18T02:26:35;9.83;;;8.90;;
16393;SDS011;8306;51.128;4.476;2023-03-18T02:28:54;10.40;;;9.43;;
16393;SDS011;8306;51.128;4.476;2023-03-18T02:31:20;11.37;;;10.30;;
16393;SDS011;8306;51.128;4.476;2023-03-18T02:33:46;11.13;;;10.23;;
16393;SDS011;8306;51.128;4.476;2023-03-18T02:36:16;11.20;;;10.23;;
16393;SDS011;8306;51.128;4.476;2023-03-18T02:38:43;11.13;;;10.23;;
16393;SDS011;8306;51.128;4.476;2023-03-18T02:41:13;12.17;;;11.17;;
16393;SDS011;8306;51.128;4.476;2023-03-18T02:43:38;12.70;;;11.60;;
16393;SDS011;8306;51.128;4.476;2023-03-18T02:46:11;13.00;;;11.90;;
16393;SDS011;8306;51.128;4.476;2023-03-18T02:48:43;12.93;;;11.73;;
16393;SDS011;8306;51.128;4.476;2023-03-18T02:51:10;14.30;;;13.00;;
16393;SDS011;8306;51.128;4.476;2023-03-18T02:53:36;13.17;;;12.13;;
16393;SDS011;8306;51.128;4.476;2023-03-18T02:56:02;13.77;;;12.60;;
16393;SDS011;8306;51.128;4.476;2023-03-18T02:58:29;13.13;;;12.13;;
16393;SDS011;8306;51.128;4.476;2023-03-18T03:00:55;14.73;;;13.40;;
16393;SDS011;8306;51.128;4.476;2023-03-18T03:03:22;13.43;;;12.23;;
16393;SDS011;8306;51.128;4.476;2023-03-18T03:05:48;14.13;;;12.83;;
16393;SDS011;8306;51.128;4.476;2023-03-18T03:08:14;14.27;;;12.77;;
16393;SDS011;8306;51.128;4.476;2023-03-18T03:10:41;14.17;;;12.97;;
16393;SDS011;8306;51.128;4.476;2023-03-18T03:13:07;15.03;;;13.83;;
16393;SDS011;8306;51.128;4.476;2023-03-18T03:15:37;14.30;;;12.93;;
16393;SDS011;8306;51.128;4.476;2023-03-18T03:18:03;14.90;;;13.70;;
16393;SDS011;8306;51.128;4.476;2023-03-18T03:20:30;14.47;;;13.40;;
16393;SDS011;8306;51.128;4.476;2023-03-18T03:22:58;15.43;;;14.23;;
16393;SDS011;8306;51.128;4.476;2023-03-18T03:25:25;15.27;;;13.97;;
16393;SDS011;8306;51.128;4.476;2023-03-18T03:27:54;15.57;;;14.37;;
16393;SDS011;8306;51.128;4.476;2023-03-18T03:30:21;16.03;;;14.63;;
16393;SDS011;8306;51.128;4.476;2023-03-18T03:32:48;14.67;;;13.37;;
16393;SDS011;8306;51.128;4.476;2023-03-18T03:35:15;16.83;;;15.47;;
16393;SDS011;8306;51.128;4.476;2023-03-18T03:37:41;14.57;;;13.33;;
16393;SDS011;8306;51.128;4.476;2023-03-18T03:40:08;14.97;;;13.67;;
16393;SDS011;8306;51.128;4.476;2023-03-18T03:42:34;13.47;;;12.47;;
16393;SDS011;8306;51.128;4.476;2023-03-18T03:45:01;13.17;;;12.17;;
16393;SDS011;8306;51.128;4.476;2023-03-18T03:47:27;13.13;;;11.97;;
16393;SDS011;8306;51.128;4.476;2023-03-18T03:49:53;11.90;;;11.00;;
16393;SDS011;8306;51.128;4.476;2023-03-18T03:52:20;13.10;;;12.10;;
16393;SDS011;8306;51.128;4.476;2023-03-18T03:54:46;13.00;;;12.00;;
16393;SDS011;8306;51.128;4.476;2023-03-18T03:57:13;13.43;;;12.33;;
16393;SDS011;8306;51.128;4.476;2023-03-18T03:59:39;12.93;;;11.83;;
16393;SDS011;8306;51.128;4.476;2023-03-18T04:02:06;12.47;;;11.33;;
16393;SDS011;8306;51.128;4.476;2023-03-18T04:04:32;13.17;;;12.07;;
16393;SDS011;8306;51.128;4.476;2023-03-18T04:06:59;13.27;;;11.97;;
16393;SDS011;8306;51.128;4.476;2023-03-18T04:09:25;13.23;;;12.13;;
16393;SDS011;8306;51.128;4.476;2023-03-18T04:11:52;12.30;;;11.40;;
16393;SDS011;8306;51.128;4.476;2023-03-18T04:14:18;12.63;;;11.60;;
16393;SDS011;8306;51.128;4.476;2023-03-18T04:16:45;13.77;;;11.63;;
16393;SDS011;8306;51.128;4.476;2023-03-18T04:19:11;12.23;;;11.13;;
16393;SDS011;8306;51.128;4.476;2023-03-18T04:21:38;12.87;;;11.60;;
16393;SDS011;8306;51.128;4.476;2023-03-18T04:24:04;12.37;;;11.30;;
16393;SDS011;8306;51.128;4.476;2023-03-18T04:26:31;12.07;;;11.07;;
16393;SDS011;8306;51.128;4.476;2023-03-18T04:28:57;12.80;;;11.80;;
16393;SDS011;8306;51.128;4.476;2023-03-18T04:31:24;11.20;;;10.23;;
16393;SDS011;8306;51.128;4.476;2023-03-18T04:33:50;12.33;;;11.23;;
16393;SDS011;8306;51.128;4.476;2023-03-18T04:36:17;12.17;;;11.13;;
16393;SDS011;8306;51.128;4.476;2023-03-18T04:38:43;12.80;;;11.60;;
16393;SDS011;8306;51.128;4.476;2023-03-18T04:41:10;11.33;;;10.37;;
16393;SDS011;8306;51.128;4.476;2023-03-18T04:43:36;12.20;;;11.20;;
16393;SDS011;8306;51.128;4.476;2023-03-18T04:46:02;12.90;;;11.73;;
16393;SDS011;8306;51.128;4.476;2023-03-18T04:48:29;13.33;;;12.13;;
16393;SDS011;8306;51.128;4.476;2023-03-18T04:50:55;12.97;;;11.87;;
16393;SDS011;8306;51.128;4.476;2023-03-18T04:53:22;12.17;;;11.23;;
16393;SDS011;8306;51.128;4.476;2023-03-18T04:55:48;12.57;;;11.40;;
16393;SDS011;8306;51.128;4.476;2023-03-18T04:58:15;12.70;;;11.60;;
16393;SDS011;8306;51.128;4.476;2023-03-18T05:00:41;15.70;;;12.60;;
16393;SDS011;8306;51.128;4.476;2023-03-18T05:03:08;13.30;;;12.07;;
16393;SDS011;8306;51.128;4.476;2023-03-18T05:05:34;14.40;;;13.10;;
16393;SDS011;8306;51.128;4.476;2023-03-18T05:08:01;12.70;;;11.70;;
16393;SDS011;8306;51.128;4.476;2023-03-18T05:10:27;13.23;;;12.07;;
16393;SDS011;8306;51.128;4.476;2023-03-18T05:12:54;13.67;;;12.40;;
16393;SDS011;8306;51.128;4.476;2023-03-18T05:15:20;12.80;;;11.70;;
16393;SDS011;8306;51.128;4.476;2023-03-18T05:17:50;13.93;;;12.73;;
16393;SDS011;8306;51.128;4.476;2023-03-18T05:20:16;12.40;;;11.37;;
16393;SDS011;8306;51.128;4.476;2023-03-18T05:22:43;12.37;;;11.37;;
16393;SDS011;8306;51.128;4.476;2023-03-18T05:25:09;12.47;;;11.27;;
16393;SDS011;8306;51.128;4.476;2023-03-18T05:27:36;12.30;;;11.37;;
16393;SDS011;8306;51.128;4.476;2023-03-18T05:30:03;13.03;;;11.93;;
16393;SDS011;8306;51.128;4.476;2023-03-18T05:32:29;12.90;;;11.57;;
16393;SDS011;8306;51.128;4.476;2023-03-18T05:34:56;12.40;;;11.17;;
16393;SDS011;8306;51.128;4.476;2023-03-18T05:37:22;13.40;;;12.10;;
16393;SDS011;8306;51.128;4.476;2023-03-18T05:39:49;13.50;;;12.20;;
16393;SDS011;8306;51.128;4.476;2023-03-18T05:42:15;17.17;;;15.33;;
16393;SDS011;8306;51.128;4.476;2023-03-18T05:44:42;15.40;;;13.13;;
16393;SDS011;8306;51.128;4.476;2023-03-18T05:47:08;14.37;;;13.00;;
16393;SDS011;8306;51.128;4.476;2023-03-18T05:49:35;14.77;;;13.57;;
16393;SDS011;8306;51.128;4.476;2023-03-18T05:52:01;14.40;;;13.10;;
16393;SDS011;8306;51.128;4.476;2023-03-18T05:54:27;14.73;;;13.13;;
16393;SDS011;8306;51.128;4.476;2023-03-18T05:56:54;14.80;;;13.57;;
16393;SDS011;8306;51.128;4.476;2023-03-18T05:59:21;13.63;;;12.63;;
16393;SDS011;8306;51.128;4.476;2023-03-18T06:01:47;14.17;;;12.97;;
16393;SDS011;8306;51.128;4.476;2023-03-18T06:04:13;14.33;;;13.13;;
16393;SDS011;8306;51.128;4.476;2023-03-18T06:06:40;14.00;;;12.90;;
16393;SDS011;8306;51.128;4.476;2023-03-18T06:09:07;15.30;;;13.90;;
16393;SDS011;8306;51.128;4.476;2023-03-18T06:11:33;14.87;;;13.40;;
16393;SDS011;8306;51.128;4.476;2023-03-18T06:13:59;13.73;;;12.63;;
16393;SDS011;8306;51.128;4.476;2023-03-18T06:16:26;15.03;;;13.80;;
16393;SDS011;8306;51.128;4.476;2023-03-18T06:18:52;15.50;;;14.30;;
16393;SDS011;8306;51.128;4.476;2023-03-18T06:21:19;16.97;;;15.67;;
16393;SDS011;8306;51.128;4.476;2023-03-18T06:23:45;15.00;;;13.80;;
16393;SDS011;8306;51.128;4.476;2023-03-18T06:26:12;14.63;;;13.17;;
16393;SDS011;8306;51.128;4.476;2023-03-18T06:28:38;12.37;;;11.50;;
16393;SDS011;8306;51.128;4.476;2023-03-18T06:31:05;11.33;;;10.43;;
16393;SDS011;8306;51.128;4.476;2023-03-18T06:33:31;10.97;;;10.17;;
16393;SDS011;8306;51.128;4.476;2023-03-18T06:35:58;10.63;;;9.73;;
16393;SDS011;8306;51.128;4.476;2023-03-18T06:38:24;10.43;;;9.63;;
16393;SDS011;8306;51.128;4.476;2023-03-18T06:40:51;10.10;;;9.40;;
16393;SDS011;8306;51.128;4.476;2023-03-18T06:43:17;10.03;;;9.13;;
16393;SDS011;8306;51.128;4.476;2023-03-18T06:45:44;9.37;;;8.67;;
16393;SDS011;8306;51.128;4.476;2023-03-18T06:48:10;8.73;;;8.13;;
16393;SDS011;8306;51.128;4.476;2023-03-18T06:50:37;8.40;;;7.70;;
16393;SDS011;8306;51.128;4.476;2023-03-18T06:53:03;7.93;;;7.43;;
16393;SDS011;8306;51.128;4.476;2023-03-18T06:55:30;8.27;;;7.67;;
16393;SDS011;8306;51.128;4.476;2023-03-18T06:57:56;7.30;;;6.80;;
16393;SDS011;8306;51.128;4.476;2023-03-18T07:00:23;8.13;;;7.53;;
16393;SDS011;8306;51.128;4.476;2023-03-18T07:02:49;7.73;;;7.23;;
16393;SDS011;8306;51.128;4.476;2023-03-18T07:05:16;7.77;;;7.17;;
16393;SDS011;8306;51.128;4.476;2023-03-18T07:07:42;7.70;;;7.20;;
16393;SDS011;8306;51.128;4.476;2023-03-18T07:10:12;7.23;;;6.73;;
16393;SDS011;8306;51.128;4.476;2023-03-18T07:12:36;7.87;;;7.27;;
16393;SDS011;8306;51.128;4.476;2023-03-18T07:15:02;7.90;;;7.40;;
16393;SDS011;8306;51.128;4.476;2023-03-18T07:17:28;8.10;;;7.60;;
16393;SDS011;8306;51.128;4.476;2023-03-18T07:19:55;8.03;;;7.53;;
16393;SDS011;8306;51.128;4.476;2023-03-18T07:22:21;7.47;;;6.97;;
16393;SDS011;8306;51.128;4.476;2023-03-18T07:24:48;8.50;;;7.83;;
16393;SDS011;8306;51.128;4.476;2023-03-18T07:27:14;8.97;;;8.47;;
16393;SDS011;8306;51.128;4.476;2023-03-18T07:29:41;9.03;;;8.37;;
16393;SDS011;8306;51.128;4.476;2023-03-18T07:32:07;7.57;;;7.07;;
16393;SDS011;8306;51.128;4.476;2023-03-18T07:34:34;8.13;;;7.53;;
16393;SDS011;8306;51.128;4.476;2023-03-18T07:37:00;8.43;;;7.83;;
16393;SDS011;8306;51.128;4.476;2023-03-18T07:39:27;7.40;;;6.80;;
16393;SDS011;8306;51.128;4.476;2023-03-18T07:41:53;7.30;;;6.70;;
16393;SDS011;8306;51.128;4.476;2023-03-18T07:44:20;6.80;;;6.37;;
16393;SDS011;8306;51.128;4.476;2023-03-18T07:46:46;6.93;;;6.43;;
16393;SDS011;8306;51.128;4.476;2023-03-18T07:49:13;6.40;;;6.00;;
16393;SDS011;8306;51.128;4.476;2023-03-18T07:51:39;6.73;;;6.33;;
16393;SDS011;8306;51.128;4.476;2023-03-18T07:54:06;6.80;;;6.40;;
16393;SDS011;8306;51.128;4.476;2023-03-18T07:56:32;6.77;;;6.37;;
16393;SDS011;8306;51.128;4.476;2023-03-18T07:58:59;6.77;;;6.27;;
16393;SDS011;8306;51.128;4.476;2023-03-18T08:01:25;6.23;;;5.73;;
16393;SDS011;8306;51.128;4.476;2023-03-18T08:03:52;6.63;;;6.13;;
16393;SDS011;8306;51.128;4.476;2023-03-18T08:06:18;6.27;;;5.80;;
16393;SDS011;8306;51.128;4.476;2023-03-18T08:08:44;6.33;;;5.83;;
16393;SDS011;8306;51.128;4.476;2023-03-18T08:11:11;5.47;;;5.10;;
16393;SDS011;8306;51.128;4.476;2023-03-18T08:13:38;5.93;;;5.53;;
16393;SDS011;8306;51.128;4.476;2023-03-18T08:16:04;5.77;;;5.37;;
16393;SDS011;8306;51.128;4.476;2023-03-18T08:18:30;5.40;;;5.00;;
16393;SDS011;8306;51.128;4.476;2023-03-18T08:20:57;5.57;;;5.17;;
16393;SDS011;8306;51.128;4.476;2023-03-18T08:23:23;5.43;;;5.10;;
16393;SDS011;8306;51.128;4.476;2023-03-18T08:25:50;5.30;;;4.90;;
16393;SDS011;8306;51.128;4.476;2023-03-18T08:28:16;4.60;;;4.30;;
16393;SDS011;8306;51.128;4.476;2023-03-18T08:30:43;4.63;;;4.33;;
16393;SDS011;8306;51.128;4.476;2023-03-18T08:33:09;4.10;;;3.80;;
16393;SDS011;8306;51.128;4.476;2023-03-18T08:35:36;4.63;;;4.33;;
16393;SDS011;8306;51.128;4.476;2023-03-18T08:38:02;5.30;;;4.37;;
16393;SDS011;8306;51.128;4.476;2023-03-18T08:40:29;4.67;;;4.00;;
16393;SDS011;8306;51.128;4.476;2023-03-18T08:42:55;4.40;;;4.10;;
16393;SDS011;8306;51.128;4.476;2023-03-18T08:45:22;4.43;;;4.03;;
16393;SDS011;8306;51.128;4.476;2023-03-18T08:47:48;4.13;;;3.83;;
16393;SDS011;8306;51.128;4.476;2023-03-18T08:50:15;4.17;;;3.87;;
16393;SDS011;8306;51.128;4.476;2023-03-18T08:52:41;4.50;;;4.20;;
16393;SDS011;8306;51.128;4.476;2023-03-18T08:55:08;4.13;;;3.83;;
16393;SDS011;8306;51.128;4.476;2023-03-18T08:57:34;3.90;;;3.60;;
16393;SDS011;8306;51.128;4.476;2023-03-18T09:00:00;3.60;;;3.40;;
16393;SDS011;8306;51.128;4.476;2023-03-18T09:02:27;3.97;;;3.60;;
16393;SDS011;8306;51.128;4.476;2023-03-18T09:04:53;4.40;;;3.70;;
16393;SDS011;8306;51.128;4.476;2023-03-18T09:07:20;3.77;;;3.07;;
16393;SDS011;8306;51.128;4.476;2023-03-18T09:09:46;3.90;;;3.60;;
16393;SDS011;8306;51.128;4.476;2023-03-18T09:12:13;3.40;;;3.20;;
16393;SDS011;8306;51.128;4.476;2023-03-18T09:14:40;3.30;;;3.10;;
16393;SDS011;8306;51.128;4.476;2023-03-18T09:17:06;3.60;;;3.30;;
16393;SDS011;8306;51.128;4.476;2023-03-18T09:19:32;4.20;;;3.80;;
16393;SDS011;8306;51.128;4.476;2023-03-18T09:21:59;3.80;;;3.50;;
16393;SDS011;8306;51.128;4.476;2023-03-18T09:24:25;3.77;;;3.47;;
16393;SDS011;8306;51.128;4.476;2023-03-18T09:26:52;3.60;;;3.40;;
16393;SDS011;8306;51.128;4.476;2023-03-18T09:29:18;3.47;;;3.17;;
16393;SDS011;8306;51.128;4.476;2023-03-18T09:31:45;3.50;;;3.20;;
16393;SDS011;8306;51.128;4.476;2023-03-18T09:34:11;4.00;;;3.67;;
16393;SDS011;8306;51.128;4.476;2023-03-18T09:36:38;3.20;;;2.90;;
16393;SDS011;8306;51.128;4.476;2023-03-18T09:39:04;3.20;;;3.00;;
16393;SDS011;8306;51.128;4.476;2023-03-18T09:44:26;3.43;;;3.23;;
16393;SDS011;8306;51.128;4.476;2023-03-18T09:46:57;3.83;;;3.53;;
16393;SDS011;8306;51.128;4.476;2023-03-18T09:49:44;3.30;;;3.00;;
16393;SDS011;8306;51.128;4.476;2023-03-18T09:52:28;3.50;;;3.20;;
16393;SDS011;8306;51.128;4.476;2023-03-18T09:55:08;3.57;;;3.23;;
16393;SDS011;8306;51.128;4.476;2023-03-18T09:57:37;3.50;;;3.20;;
16393;SDS011;8306;51.128;4.476;2023-03-18T10:00:10;3.60;;;3.30;;
16393;SDS011;8306;51.128;4.476;2023-03-18T10:02:36;3.30;;;3.10;;
16393;SDS011;8306;51.128;4.476;2023-03-18T10:05:16;3.60;;;3.30;;
16393;SDS011;8306;51.128;4.476;2023-03-18T10:07:36;3.70;;;3.40;;
16393;SDS011;8306;51.128;4.476;2023-03-18T10:12:46;3.57;;;3.27;;
16393;SDS011;8306;51.128;4.476;2023-03-18T10:15:12;3.33;;;3.13;;
16393;SDS011;8306;51.128;4.476;2023-03-18T10:17:41;3.20;;;3.00;;
16393;SDS011;8306;51.128;4.476;2023-03-18T10:20:20;3.27;;;2.97;;
16393;SDS011;8306;51.128;4.476;2023-03-18T10:22:53;2.83;;;2.60;;
16393;SDS011;8306;51.128;4.476;2023-03-18T10:25:27;3.10;;;2.80;;
16393;SDS011;8306;51.128;4.476;2023-03-18T10:35:33;3.80;;;2.60;;
16393;SDS011;8306;51.128;4.476;2023-03-18T10:37:58;3.00;;;2.70;;
16393;SDS011;8306;51.128;4.476;2023-03-18T10:40:23;2.90;;;2.60;;
16393;SDS011;8306;51.128;4.476;2023-03-18T10:42:49;2.80;;;2.60;;
16393;SDS011;8306;51.128;4.476;2023-03-18T10:45:23;3.03;;;2.80;;
16393;SDS011;8306;51.128;4.476;2023-03-18T10:47:46;3.20;;;2.90;;
16393;SDS011;8306;51.128;4.476;2023-03-18T10:50:22;3.23;;;2.70;;
16393;SDS011;8306;51.128;4.476;2023-03-18T10:52:50;4.13;;;2.70;;
16393;SDS011;8306;51.128;4.476;2023-03-18T10:55:18;3.27;;;2.97;;
16393;SDS011;8306;51.128;4.476;2023-03-18T10:57:43;3.40;;;2.63;;
16393;SDS011;8306;51.128;4.476;2023-03-18T11:00:26;3.33;;;3.03;;
16393;SDS011;8306;51.128;4.476;2023-03-18T11:02:51;3.43;;;2.90;;
16393;SDS011;8306;51.128;4.476;2023-03-18T11:05:51;3.27;;;2.97;;
16393;SDS011;8306;51.128;4.476;2023-03-18T11:07:56;3.00;;;2.70;;
16393;SDS011;8306;51.128;4.476;2023-03-18T11:10:26;3.03;;;2.73;;
16393;SDS011;8306;51.128;4.476;2023-03-18T11:12:53;3.13;;;2.47;;
16393;SDS011;8306;51.128;4.476;2023-03-18T11:15:23;4.17;;;3.20;;
16393;SDS011;8306;51.128;4.476;2023-03-18T11:17:50;3.63;;;2.90;;
16393;SDS011;8306;51.128;4.476;2023-03-18T11:20:21;2.50;;;2.30;;
16393;SDS011;8306;51.128;4.476;2023-03-18T11:22:49;2.90;;;2.37;;
16393;SDS011;8306;51.128;4.476;2023-03-18T11:25:16;3.30;;;2.60;;
16393;SDS011;8306;51.128;4.476;2023-03-18T11:27:48;3.27;;;2.80;;
16393;SDS011;8306;51.128;4.476;2023-03-18T11:30:20;3.93;;;2.40;;
16393;SDS011;8306;51.128;4.476;2023-03-18T11:32:50;3.17;;;2.57;;
16393;SDS011;8306;51.128;4.476;2023-03-18T11:35:23;2.63;;;2.13;;
16393;SDS011;8306;51.128;4.476;2023-03-18T11:37:48;2.93;;;2.40;;
16393;SDS011;8306;51.128;4.476;2023-03-18T11:40:15;2.20;;;2.00;;
16393;SDS011;8306;51.128;4.476;2023-03-18T11:42:44;3.80;;;1.80;;
16393;SDS011;8306;51.128;4.476;2023-03-18T11:47:52;1.67;;;1.57;;
16393;SDS011;8306;51.128;4.476;2023-03-18T11:50:19;1.40;;;1.30;;
16393;SDS011;8306;51.128;4.476;2023-03-18T11:52:52;1.90;;;1.60;;
16393;SDS011;8306;51.128;4.476;2023-03-18T11:55:32;2.63;;;2.30;;
16393;SDS011;8306;51.128;4.476;2023-03-18T11:58:10;1.77;;;1.67;;
16393;SDS011;8306;51.128;4.476;2023-03-18T12:13:53;2.00;;;1.80;;
16393;SDS011;8306;51.128;4.476;2023-03-18T12:16:23;2.07;;;1.63;;
16393;SDS011;8306;51.128;4.476;2023-03-18T12:19:15;2.17;;;1.97;;
16393;SDS011;8306;51.128;4.476;2023-03-18T12:21:46;2.00;;;1.77;;
16393;SDS011;8306;51.128;4.476;2023-03-18T12:26:58;1.87;;;1.37;;
16393;SDS011;8306;51.128;4.476;2023-03-18T12:37:06;3.20;;;1.37;;
16393;SDS011;8306;51.128;4.476;2023-03-18T12:39:50;1.60;;;1.17;;
16393;SDS011;8306;51.128;4.476;2023-03-18T12:42:23;1.90;;;1.27;;
16393;SDS011;8306;51.128;4.476;2023-03-18T12:45:02;1.93;;;1.10;;
16393;SDS011;8306;51.128;4.476;2023-03-18T12:47:32;1.23;;;1.10;;
16393;SDS011;8306;51.128;4.476;2023-03-18T12:52:58;1.10;;;0.90;;
16393;SDS011;8306;51.128;4.476;2023-03-18T12:55:27;1.07;;;0.90;;
16393;SDS011;8306;51.128;4.476;2023-03-18T13:00:34;1.50;;;0.87;;
16393;SDS011;8306;51.128;4.476;2023-03-18T13:14:14;0.80;;;0.80;;
16393;SDS011;8306;51.128;4.476;2023-03-18T13:16:35;1.53;;;0.70;;
16393;SDS011;8306;51.128;4.476;2023-03-18T13:19:01;2.17;;;0.80;;
16393;SDS011;8306;51.128;4.476;2023-03-18T13:21:33;2.30;;;0.90;;
16393;SDS011;8306;51.128;4.476;2023-03-18T13:26:55;2.03;;;0.90;;
16393;SDS011;8306;51.128;4.476;2023-03-18T13:34:50;1.50;;;1.17;;
16393;SDS011;8306;51.128;4.476;2023-03-18T13:42:45;0.93;;;0.80;;
16393;SDS011;8306;51.128;4.476;2023-03-18T13:48:00;8.47;;;2.97;;
16393;SDS011;8306;51.128;4.476;2023-03-18T13:50:29;5.93;;;2.20;;
16393;SDS011;8306;51.128;4.476;2023-03-18T13:53:01;2.47;;;1.40;;
16393;SDS011;8306;51.128;4.476;2023-03-18T13:55:41;2.67;;;1.40;;
16393;SDS011;8306;51.128;4.476;2023-03-18T14:00:37;13.23;;;3.90;;
16393;SDS011;8306;51.128;4.476;2023-03-18T14:07:57;1.80;;;1.20;;
16393;SDS011;8306;51.128;4.476;2023-03-18T14:10:23;2.67;;;1.30;;
16393;SDS011;8306;51.128;4.476;2023-03-18T14:12:50;1.77;;;0.90;;
16393;SDS011;8306;51.128;4.476;2023-03-18T14:15:35;2.43;;;1.43;;
16393;SDS011;8306;51.128;4.476;2023-03-18T14:18:01;2.13;;;1.20;;
16393;SDS011;8306;51.128;4.476;2023-03-18T14:20:35;2.20;;;1.30;;
16393;SDS011;8306;51.128;4.476;2023-03-18T14:22:54;3.97;;;0.93;;
16393;SDS011;8306;51.128;4.476;2023-03-18T14:28:00;1.60;;;0.90;;
16393;SDS011;8306;51.128;4.476;2023-03-18T14:33:01;2.20;;;1.20;;
16393;SDS011;8306;51.128;4.476;2023-03-18T14:40:34;1.87;;;1.03;;
16393;SDS011;8306;51.128;4.476;2023-03-18T14:43:05;1.77;;;0.80;;
16393;SDS011;8306;51.128;4.476;2023-03-18T14:45:38;1.37;;;0.90;;
16393;SDS011;8306;51.128;4.476;2023-03-18T14:47:56;2.03;;;0.90;;
16393;SDS011;8306;51.128;4.476;2023-03-18T14:50:31;2.47;;;1.00;;
16393;SDS011;8306;51.128;4.476;2023-03-18T14:53:01;1.47;;;1.00;;
16393;SDS011;8306;51.128;4.476;2023-03-18T14:55:25;2.07;;;1.10;;
16393;SDS011;8306;51.128;4.476;2023-03-18T14:57:50;4.40;;;1.13;;
16393;SDS011;8306;51.128;4.476;2023-03-18T15:00:18;2.37;;;1.30;;
16393;SDS011;8306;51.128;4.476;2023-03-18T15:02:44;1.83;;;0.80;;
16393;SDS011;8306;51.128;4.476;2023-03-18T15:05:12;2.00;;;0.83;;
16393;SDS011;8306;51.128;4.476;2023-03-18T15:07:37;1.10;;;0.77;;
16393;SDS011;8306;51.128;4.476;2023-03-18T15:10:13;2.30;;;1.00;;
16393;SDS011;8306;51.128;4.476;2023-03-18T15:12:38;2.27;;;0.87;;
16393;SDS011;8306;51.128;4.476;2023-03-18T15:15:05;1.60;;;0.90;;
16393;SDS011;8306;51.128;4.476;2023-03-18T15:17:32;2.00;;;0.97;;
16393;SDS011;8306;51.128;4.476;2023-03-18T15:19:58;1.50;;;0.97;;
16393;SDS011;8306;51.128;4.476;2023-03-18T15:22:25;2.43;;;1.13;;
16393;SDS011;8306;51.128;4.476;2023-03-18T15:24:56;1.23;;;0.80;;
16393;SDS011;8306;51.128;4.476;2023-03-18T15:27:20;1.50;;;1.10;;
16393;SDS011;8306;51.128;4.476;2023-03-18T15:29:50;2.57;;;0.90;;
16393;SDS011;8306;51.128;4.476;2023-03-18T15:34:52;2.30;;;1.00;;
16393;SDS011;8306;51.128;4.476;2023-03-18T15:39:50;3.17;;;1.13;;
16393;SDS011;8306;51.128;4.476;2023-03-18T15:42:17;2.07;;;1.00;;
16393;SDS011;8306;51.128;4.476;2023-03-18T15:44:43;2.10;;;1.00;;
16393;SDS011;8306;51.128;4.476;2023-03-18T15:47:13;1.90;;;0.90;;
16393;SDS011;8306;51.128;4.476;2023-03-18T15:49:43;1.53;;;0.90;;
16393;SDS011;8306;51.128;4.476;2023-03-18T15:52:12;2.17;;;0.80;;
16393;SDS011;8306;51.128;4.476;2023-03-18T15:54:40;2.43;;;1.20;;
16393;SDS011;8306;51.128;4.476;2023-03-18T15:57:10;1.97;;;0.93;;
16393;SDS011;8306;51.128;4.476;2023-03-18T15:59:36;3.17;;;1.10;;
16393;SDS011;8306;51.128;4.476;2023-03-18T16:02:08;1.07;;;0.80;;
16393;SDS011;8306;51.128;4.476;2023-03-18T16:04:29;2.23;;;0.90;;
16393;SDS011;8306;51.128;4.476;2023-03-18T16:06:55;2.40;;;1.27;;
16393;SDS011;8306;51.128;4.476;2023-03-18T16:09:22;2.23;;;1.07;;
16393;SDS011;8306;51.128;4.476;2023-03-18T16:11:54;2.27;;;1.00;;
16393;SDS011;8306;51.128;4.476;2023-03-18T16:14:18;2.27;;;1.10;;
16393;SDS011;8306;51.128;4.476;2023-03-18T16:16:44;1.80;;;1.20;;
16393;SDS011;8306;51.128;4.476;2023-03-18T16:19:23;1.17;;;0.80;;
16393;SDS011;8306;51.128;4.476;2023-03-18T16:21:51;1.60;;;0.90;;
16393;SDS011;8306;51.128;4.476;2023-03-18T16:24:18;2.67;;;1.00;;
16393;SDS011;8306;51.128;4.476;2023-03-18T16:26:44;1.80;;;1.17;;
16393;SDS011;8306;51.128;4.476;2023-03-18T16:29:14;2.57;;;1.00;;
16393;SDS011;8306;51.128;4.476;2023-03-18T16:31:49;1.60;;;1.07;;
16393;SDS011;8306;51.128;4.476;2023-03-18T16:34:16;2.50;;;1.10;;